sensor_id;sensor_type;location;lat;lon;timestamp;temperature;humidity
913;DHT22;443;51.448;7.028;2022-08-18T00:02:00;22.10;83.60
913;DHT22;443;51.448;7.028;2022-08-18T00:04:28;22.10;83.60
913;DHT22;443;51.448;7.028;2022-08-18T00:06:55;22.10;83.70
913;DHT22;443;51.448;7.028;2022-08-18T00:09:21;22.10;83.70
913;DHT22;443;51.448;7.028;2022-08-18T00:11:50;22.10;83.70
913;DHT22;443;51.448;7.028;2022-08-18T00:14:19;22.20;83.70
913;DHT22;443;51.448;7.028;2022-08-18T00:16:47;22.10;83.80
913;DHT22;443;51.448;7.028;2022-08-18T00:19:14;22.00;84.00
913;DHT22;443;51.448;7.028;2022-08-18T00:21:41;22.10;84.10
913;DHT22;443;51.448;7.028;2022-08-18T00:24:08;22.10;83.70
913;DHT22;443;51.448;7.028;2022-08-18T00:26:34;22.10;83.60
913;DHT22;443;51.448;7.028;2022-08-18T00:29:03;22.10;83.60
913;DHT22;443;51.448;7.028;2022-08-18T00:31:30;22.10;83.70
913;DHT22;443;51.448;7.028;2022-08-18T00:33:57;22.00;84.30
913;DHT22;443;51.448;7.028;2022-08-18T00:36:24;22.00;84.10
913;DHT22;443;51.448;7.028;2022-08-18T00:38:51;22.00;84.10
913;DHT22;443;51.448;7.028;2022-08-18T00:41:19;22.00;84.20
913;DHT22;443;51.448;7.028;2022-08-18T00:43:48;22.00;83.90
913;DHT22;443;51.448;7.028;2022-08-18T00:46:18;22.00;84.20
913;DHT22;443;51.448;7.028;2022-08-18T00:48:45;22.00;84.20
913;DHT22;443;51.448;7.028;2022-08-18T00:51:16;22.00;84.20
913;DHT22;443;51.448;7.028;2022-08-18T00:53:47;22.00;84.20
913;DHT22;443;51.448;7.028;2022-08-18T00:56:18;22.00;84.20
913;DHT22;443;51.448;7.028;2022-08-18T00:58:52;22.00;84.20
913;DHT22;443;51.448;7.028;2022-08-18T01:01:25;21.90;84.50
913;DHT22;443;51.448;7.028;2022-08-18T01:03:57;21.90;84.40
913;DHT22;443;51.448;7.028;2022-08-18T01:06:29;21.90;84.80
913;DHT22;443;51.448;7.028;2022-08-18T01:08:58;21.90;84.80
913;DHT22;443;51.448;7.028;2022-08-18T01:11:25;21.90;84.80
913;DHT22;443;51.448;7.028;2022-08-18T01:13:52;22.00;85.40
913;DHT22;443;51.448;7.028;2022-08-18T01:16:19;22.00;85.70
913;DHT22;443;51.448;7.028;2022-08-18T01:19:05;22.00;86.00
913;DHT22;443;51.448;7.028;2022-08-18T01:21:54;22.00;86.20
913;DHT22;443;51.448;7.028;2022-08-18T01:24:27;22.00;86.20
913;DHT22;443;51.448;7.028;2022-08-18T01:27:09;22.00;85.80
913;DHT22;443;51.448;7.028;2022-08-18T01:29:36;22.10;85.50
913;DHT22;443;51.448;7.028;2022-08-18T01:32:03;22.00;85.30
913;DHT22;443;51.448;7.028;2022-08-18T01:34:30;22.00;85.30
913;DHT22;443;51.448;7.028;2022-08-18T01:36:57;22.00;85.40
913;DHT22;443;51.448;7.028;2022-08-18T01:39:26;22.00;85.60
913;DHT22;443;51.448;7.028;2022-08-18T01:41:53;22.00;85.70
913;DHT22;443;51.448;7.028;2022-08-18T01:44:19;22.10;86.20
913;DHT22;443;51.448;7.028;2022-08-18T01:46:46;22.00;85.20
913;DHT22;443;51.448;7.028;2022-08-18T01:49:13;22.00;85.20
913;DHT22;443;51.448;7.028;2022-08-18T01:51:40;22.00;85.30
913;DHT22;443;51.448;7.028;2022-08-18T01:54:09;22.00;85.40
913;DHT22;443;51.448;7.028;2022-08-18T01:56:38;22.10;85.30
913;DHT22;443;51.448;7.028;2022-08-18T01:59:07;22.00;85.20
913;DHT22;443;51.448;7.028;2022-08-18T02:01:39;21.90;85.30
913;DHT22;443;51.448;7.028;2022-08-18T02:04:07;22.00;85.40
913;DHT22;443;51.448;7.028;2022-08-18T02:06:35;21.90;85.40
913;DHT22;443;51.448;7.028;2022-08-18T02:09:02;21.90;85.50
913;DHT22;443;51.448;7.028;2022-08-18T02:11:29;21.90;85.70
913;DHT22;443;51.448;7.028;2022-08-18T02:13:57;22.00;85.70
913;DHT22;443;51.448;7.028;2022-08-18T02:16:24;22.00;85.50
913;DHT22;443;51.448;7.028;2022-08-18T02:18:51;22.00;85.50
913;DHT22;443;51.448;7.028;2022-08-18T02:21:19;21.90;85.60
913;DHT22;443;51.448;7.028;2022-08-18T02:23:47;22.00;85.80
913;DHT22;443;51.448;7.028;2022-08-18T02:26:16;22.00;85.70
913;DHT22;443;51.448;7.028;2022-08-18T02:28:43;22.00;86.20
913;DHT22;443;51.448;7.028;2022-08-18T02:31:14;22.10;85.50
913;DHT22;443;51.448;7.028;2022-08-18T02:33:41;22.00;85.50
913;DHT22;443;51.448;7.028;2022-08-18T02:36:08;22.10;85.10
913;DHT22;443;51.448;7.028;2022-08-18T02:38:37;22.10;85.10
913;DHT22;443;51.448;7.028;2022-08-18T02:41:06;22.10;85.20
913;DHT22;443;51.448;7.028;2022-08-18T02:43:34;22.00;85.10
913;DHT22;443;51.448;7.028;2022-08-18T02:46:01;22.10;85.20
913;DHT22;443;51.448;7.028;2022-08-18T02:48:29;22.00;85.20
913;DHT22;443;51.448;7.028;2022-08-18T02:51:00;22.00;85.40
913;DHT22;443;51.448;7.028;2022-08-18T02:53:27;21.90;85.50
913;DHT22;443;51.448;7.028;2022-08-18T02:55:55;22.00;85.40
913;DHT22;443;51.448;7.028;2022-08-18T02:58:22;22.00;85.20
913;DHT22;443;51.448;7.028;2022-08-18T03:00:48;22.00;85.30
913;DHT22;443;51.448;7.028;2022-08-18T03:03:15;21.90;85.40
913;DHT22;443;51.448;7.028;2022-08-18T03:05:44;21.90;85.30
913;DHT22;443;51.448;7.028;2022-08-18T03:08:10;21.80;85.20
913;DHT22;443;51.448;7.028;2022-08-18T03:10:37;21.90;85.30
913;DHT22;443;51.448;7.028;2022-08-18T03:13:04;21.90;85.40
913;DHT22;443;51.448;7.028;2022-08-18T03:15:31;21.80;85.60
913;DHT22;443;51.448;7.028;2022-08-18T03:17:58;21.90;85.50
913;DHT22;443;51.448;7.028;2022-08-18T03:20:26;21.90;85.30
913;DHT22;443;51.448;7.028;2022-08-18T03:22:55;21.80;85.40
913;DHT22;443;51.448;7.028;2022-08-18T03:25:21;21.90;85.40
913;DHT22;443;51.448;7.028;2022-08-18T03:27:48;21.90;85.90
913;DHT22;443;51.448;7.028;2022-08-18T03:30:15;21.90;85.20
913;DHT22;443;51.448;7.028;2022-08-18T03:32:42;21.80;85.20
913;DHT22;443;51.448;7.028;2022-08-18T03:35:09;21.90;85.30
913;DHT22;443;51.448;7.028;2022-08-18T03:37:36;21.90;85.10
913;DHT22;443;51.448;7.028;2022-08-18T03:40:05;21.80;85.20
913;DHT22;443;51.448;7.028;2022-08-18T03:42:32;21.90;85.20
913;DHT22;443;51.448;7.028;2022-08-18T03:44:58;21.80;85.10
913;DHT22;443;51.448;7.028;2022-08-18T03:47:25;21.80;85.20
913;DHT22;443;51.448;7.028;2022-08-18T03:49:52;21.90;85.20
913;DHT22;443;51.448;7.028;2022-08-18T03:52:19;21.90;85.10
913;DHT22;443;51.448;7.028;2022-08-18T03:54:46;21.80;85.40
913;DHT22;443;51.448;7.028;2022-08-18T03:57:14;21.90;85.40
913;DHT22;443;51.448;7.028;2022-08-18T03:59:41;21.80;85.60
913;DHT22;443;51.448;7.028;2022-08-18T04:02:09;21.70;85.60
913;DHT22;443;51.448;7.028;2022-08-18T04:04:37;21.80;85.60
913;DHT22;443;51.448;7.028;2022-08-18T04:07:07;21.80;85.70
913;DHT22;443;51.448;7.028;2022-08-18T04:09:35;21.70;85.70
913;DHT22;443;51.448;7.028;2022-08-18T04:12:05;21.70;86.00
913;DHT22;443;51.448;7.028;2022-08-18T04:14:36;21.70;85.90
913;DHT22;443;51.448;7.028;2022-08-18T04:17:04;21.80;85.50
913;DHT22;443;51.448;7.028;2022-08-18T04:19:31;21.80;85.20
913;DHT22;443;51.448;7.028;2022-08-18T04:21:59;21.70;85.40
913;DHT22;443;51.448;7.028;2022-08-18T04:24:28;21.60;85.70
913;DHT22;443;51.448;7.028;2022-08-18T04:26:57;21.60;85.90
913;DHT22;443;51.448;7.028;2022-08-18T04:29:25;21.60;85.90
913;DHT22;443;51.448;7.028;2022-08-18T04:31:53;21.60;86.10
913;DHT22;443;51.448;7.028;2022-08-18T04:34:21;21.60;86.00
913;DHT22;443;51.448;7.028;2022-08-18T04:36:49;21.70;86.20
913;DHT22;443;51.448;7.028;2022-08-18T04:39:19;21.60;85.90
913;DHT22;443;51.448;7.028;2022-08-18T04:41:46;21.70;85.80
913;DHT22;443;51.448;7.028;2022-08-18T04:44:14;21.60;85.90
913;DHT22;443;51.448;7.028;2022-08-18T04:46:44;21.60;86.00
913;DHT22;443;51.448;7.028;2022-08-18T04:49:14;21.60;86.10
913;DHT22;443;51.448;7.028;2022-08-18T04:51:44;21.60;86.00
913;DHT22;443;51.448;7.028;2022-08-18T04:54:33;21.60;86.00
913;DHT22;443;51.448;7.028;2022-08-18T04:57:07;21.60;85.90
913;DHT22;443;51.448;7.028;2022-08-18T04:59:34;21.60;86.00
913;DHT22;443;51.448;7.028;2022-08-18T05:02:02;21.60;85.70
913;DHT22;443;51.448;7.028;2022-08-18T05:04:31;21.60;85.90
913;DHT22;443;51.448;7.028;2022-08-18T05:06:59;21.60;85.90
913;DHT22;443;51.448;7.028;2022-08-18T05:09:26;21.60;85.70
913;DHT22;443;51.448;7.028;2022-08-18T05:11:53;21.60;85.70
913;DHT22;443;51.448;7.028;2022-08-18T05:14:20;21.60;85.70
913;DHT22;443;51.448;7.028;2022-08-18T05:16:47;21.60;85.80
913;DHT22;443;51.448;7.028;2022-08-18T05:19:15;21.60;85.90
913;DHT22;443;51.448;7.028;2022-08-18T05:21:47;21.60;85.80
913;DHT22;443;51.448;7.028;2022-08-18T05:24:14;21.60;85.80
913;DHT22;443;51.448;7.028;2022-08-18T05:26:43;21.70;85.90
913;DHT22;443;51.448;7.028;2022-08-18T05:29:10;21.80;86.30
913;DHT22;443;51.448;7.028;2022-08-18T05:31:37;21.70;85.40
913;DHT22;443;51.448;7.028;2022-08-18T05:34:04;21.70;85.70
913;DHT22;443;51.448;7.028;2022-08-18T05:36:52;21.60;85.70
913;DHT22;443;51.448;7.028;2022-08-18T05:39:25;21.60;86.00
913;DHT22;443;51.448;7.028;2022-08-18T05:41:59;21.60;86.00
913;DHT22;443;51.448;7.028;2022-08-18T05:44:29;21.60;86.10
913;DHT22;443;51.448;7.028;2022-08-18T05:46:59;21.60;86.10
913;DHT22;443;51.448;7.028;2022-08-18T05:49:30;21.60;86.30
913;DHT22;443;51.448;7.028;2022-08-18T05:52:00;21.60;86.30
913;DHT22;443;51.448;7.028;2022-08-18T05:54:35;21.60;86.50
913;DHT22;443;51.448;7.028;2022-08-18T05:57:21;21.60;86.70
913;DHT22;443;51.448;7.028;2022-08-18T05:59:51;21.60;86.50
913;DHT22;443;51.448;7.028;2022-08-18T06:02:27;21.60;86.50
913;DHT22;443;51.448;7.028;2022-08-18T06:05:00;21.60;86.50
913;DHT22;443;51.448;7.028;2022-08-18T06:07:33;21.60;86.50
913;DHT22;443;51.448;7.028;2022-08-18T06:10:03;21.70;86.30
913;DHT22;443;51.448;7.028;2022-08-18T06:12:32;21.80;86.00
913;DHT22;443;51.448;7.028;2022-08-18T06:15:03;21.90;85.60
913;DHT22;443;51.448;7.028;2022-08-18T06:20:51;21.90;85.60
913;DHT22;443;51.448;7.028;2022-08-18T06:23:28;21.90;85.90
913;DHT22;443;51.448;7.028;2022-08-18T06:26:06;21.90;85.70
913;DHT22;443;51.448;7.028;2022-08-18T06:28:54;22.00;85.70
913;DHT22;443;51.448;7.028;2022-08-18T06:31:32;21.90;85.70
913;DHT22;443;51.448;7.028;2022-08-18T06:34:07;21.90;85.70
913;DHT22;443;51.448;7.028;2022-08-18T06:36:45;21.90;85.70
913;DHT22;443;51.448;7.028;2022-08-18T06:39:23;21.90;85.70
913;DHT22;443;51.448;7.028;2022-08-18T06:41:52;21.90;85.70
913;DHT22;443;51.448;7.028;2022-08-18T06:44:24;21.90;85.80
913;DHT22;443;51.448;7.028;2022-08-18T06:46:57;21.90;85.90
913;DHT22;443;51.448;7.028;2022-08-18T06:49:37;21.90;86.20
913;DHT22;443;51.448;7.028;2022-08-18T06:52:28;22.00;86.10
913;DHT22;443;51.448;7.028;2022-08-18T06:54:59;22.00;85.90
913;DHT22;443;51.448;7.028;2022-08-18T06:57:29;22.00;86.40
913;DHT22;443;51.448;7.028;2022-08-18T07:00:01;21.90;86.30
913;DHT22;443;51.448;7.028;2022-08-18T07:02:47;21.90;86.70
913;DHT22;443;51.448;7.028;2022-08-18T07:05:22;21.90;86.70
913;DHT22;443;51.448;7.028;2022-08-18T07:08:09;21.90;86.90
913;DHT22;443;51.448;7.028;2022-08-18T07:10:40;21.90;86.70
913;DHT22;443;51.448;7.028;2022-08-18T07:13:22;21.90;86.80
913;DHT22;443;51.448;7.028;2022-08-18T07:15:51;21.90;87.10
913;DHT22;443;51.448;7.028;2022-08-18T07:18:25;21.90;86.90
913;DHT22;443;51.448;7.028;2022-08-18T07:20:54;21.90;87.20
913;DHT22;443;51.448;7.028;2022-08-18T07:23:31;21.80;87.00
913;DHT22;443;51.448;7.028;2022-08-18T07:26:08;21.80;87.00
913;DHT22;443;51.448;7.028;2022-08-18T07:28:38;21.80;87.10
913;DHT22;443;51.448;7.028;2022-08-18T07:31:16;21.90;87.00
913;DHT22;443;51.448;7.028;2022-08-18T07:33:51;21.80;87.30
913;DHT22;443;51.448;7.028;2022-08-18T07:36:23;21.90;87.00
913;DHT22;443;51.448;7.028;2022-08-18T07:38:54;21.80;87.10
913;DHT22;443;51.448;7.028;2022-08-18T07:41:27;21.80;87.30
913;DHT22;443;51.448;7.028;2022-08-18T07:44:04;21.80;87.60
913;DHT22;443;51.448;7.028;2022-08-18T07:46:36;21.90;87.40
913;DHT22;443;51.448;7.028;2022-08-18T07:49:05;21.80;87.10
913;DHT22;443;51.448;7.028;2022-08-18T07:51:42;21.90;87.10
913;DHT22;443;51.448;7.028;2022-08-18T07:54:17;21.90;87.20
913;DHT22;443;51.448;7.028;2022-08-18T07:56:52;21.90;86.90
913;DHT22;443;51.448;7.028;2022-08-18T07:59:26;22.00;87.40
913;DHT22;443;51.448;7.028;2022-08-18T08:02:05;22.00;86.90
913;DHT22;443;51.448;7.028;2022-08-18T08:04:41;22.00;86.90
913;DHT22;443;51.448;7.028;2022-08-18T08:07:13;21.90;86.90
913;DHT22;443;51.448;7.028;2022-08-18T08:09:46;21.90;86.90
913;DHT22;443;51.448;7.028;2022-08-18T08:12:26;21.90;86.60
913;DHT22;443;51.448;7.028;2022-08-18T08:15:03;22.00;86.50
913;DHT22;443;51.448;7.028;2022-08-18T08:17:42;22.00;86.60
913;DHT22;443;51.448;7.028;2022-08-18T08:20:18;21.90;86.60
913;DHT22;443;51.448;7.028;2022-08-18T08:23:04;22.00;86.10
913;DHT22;443;51.448;7.028;2022-08-18T08:25:41;22.00;86.10
913;DHT22;443;51.448;7.028;2022-08-18T08:28:18;22.10;85.90
913;DHT22;443;51.448;7.028;2022-08-18T08:30:55;22.00;85.70
913;DHT22;443;51.448;7.028;2022-08-18T08:33:30;22.10;85.70
913;DHT22;443;51.448;7.028;2022-08-18T08:36:04;22.00;86.00
913;DHT22;443;51.448;7.028;2022-08-18T08:38:41;22.00;85.90
913;DHT22;443;51.448;7.028;2022-08-18T08:41:12;22.10;85.90
913;DHT22;443;51.448;7.028;2022-08-18T08:43:50;22.10;85.60
913;DHT22;443;51.448;7.028;2022-08-18T08:46:21;22.10;85.70
913;DHT22;443;51.448;7.028;2022-08-18T08:48:51;22.10;85.90
913;DHT22;443;51.448;7.028;2022-08-18T08:51:28;22.10;86.70
913;DHT22;443;51.448;7.028;2022-08-18T08:54:02;22.10;85.80
913;DHT22;443;51.448;7.028;2022-08-18T08:56:35;22.10;85.70
913;DHT22;443;51.448;7.028;2022-08-18T08:59:09;22.20;85.40
913;DHT22;443;51.448;7.028;2022-08-18T09:01:41;22.10;85.30
913;DHT22;443;51.448;7.028;2022-08-18T09:04:20;22.20;85.40
913;DHT22;443;51.448;7.028;2022-08-18T09:06:55;22.10;85.20
913;DHT22;443;51.448;7.028;2022-08-18T09:09:49;22.10;85.30
913;DHT22;443;51.448;7.028;2022-08-18T09:12:31;22.20;85.50
913;DHT22;443;51.448;7.028;2022-08-18T09:15:15;22.20;85.20
913;DHT22;443;51.448;7.028;2022-08-18T09:20:52;22.20;84.80
913;DHT22;443;51.448;7.028;2022-08-18T09:23:24;22.30;84.90
913;DHT22;443;51.448;7.028;2022-08-18T09:25:53;22.30;84.90
913;DHT22;443;51.448;7.028;2022-08-18T09:28:38;22.20;84.90
913;DHT22;443;51.448;7.028;2022-08-18T09:31:17;22.30;84.80
913;DHT22;443;51.448;7.028;2022-08-18T09:34:16;22.30;84.70
913;DHT22;443;51.448;7.028;2022-08-18T09:37:04;22.30;84.70
913;DHT22;443;51.448;7.028;2022-08-18T09:39:38;22.30;84.60
913;DHT22;443;51.448;7.028;2022-08-18T09:42:32;22.20;84.70
913;DHT22;443;51.448;7.028;2022-08-18T09:45:05;22.20;85.00
913;DHT22;443;51.448;7.028;2022-08-18T09:47:59;22.30;84.70
913;DHT22;443;51.448;7.028;2022-08-18T09:53:53;22.20;84.60
913;DHT22;443;51.448;7.028;2022-08-18T10:05:40;22.20;84.10
913;DHT22;443;51.448;7.028;2022-08-18T10:11:25;22.30;83.90
913;DHT22;443;51.448;7.028;2022-08-18T10:14:24;22.40;84.20
913;DHT22;443;51.448;7.028;2022-08-18T10:17:00;22.30;84.00
913;DHT22;443;51.448;7.028;2022-08-18T10:19:35;22.40;83.50
913;DHT22;443;51.448;7.028;2022-08-18T10:22:07;22.40;83.60
913;DHT22;443;51.448;7.028;2022-08-18T10:24:38;22.40;83.80
913;DHT22;443;51.448;7.028;2022-08-18T10:29:56;22.40;83.30
913;DHT22;443;51.448;7.028;2022-08-18T10:32:41;22.40;84.50
913;DHT22;443;51.448;7.028;2022-08-18T10:38:39;22.50;83.60
913;DHT22;443;51.448;7.028;2022-08-18T10:41:12;22.50;83.50
913;DHT22;443;51.448;7.028;2022-08-18T10:43:42;22.50;83.40
913;DHT22;443;51.448;7.028;2022-08-18T10:46:18;22.50;83.50
913;DHT22;443;51.448;7.028;2022-08-18T10:49:01;22.50;83.40
913;DHT22;443;51.448;7.028;2022-08-18T10:51:52;22.50;83.60
913;DHT22;443;51.448;7.028;2022-08-18T10:54:30;22.50;83.30
913;DHT22;443;51.448;7.028;2022-08-18T10:57:07;22.50;83.20
913;DHT22;443;51.448;7.028;2022-08-18T10:59:44;22.50;83.10
913;DHT22;443;51.448;7.028;2022-08-18T11:02:33;22.50;83.40
913;DHT22;443;51.448;7.028;2022-08-18T11:05:05;22.50;83.80
913;DHT22;443;51.448;7.028;2022-08-18T11:07:33;22.50;83.60
913;DHT22;443;51.448;7.028;2022-08-18T11:10:17;22.50;84.20
913;DHT22;443;51.448;7.028;2022-08-18T11:12:58;22.50;83.50
913;DHT22;443;51.448;7.028;2022-08-18T11:15:34;22.50;83.50
913;DHT22;443;51.448;7.028;2022-08-18T11:18:13;22.50;83.60
913;DHT22;443;51.448;7.028;2022-08-18T11:20:42;22.50;83.40
913;DHT22;443;51.448;7.028;2022-08-18T11:23:13;22.50;83.40
913;DHT22;443;51.448;7.028;2022-08-18T11:25:42;22.50;83.40
913;DHT22;443;51.448;7.028;2022-08-18T11:28:16;22.50;83.30
913;DHT22;443;51.448;7.028;2022-08-18T11:30:45;22.50;83.60
913;DHT22;443;51.448;7.028;2022-08-18T11:33:15;22.50;83.60
913;DHT22;443;51.448;7.028;2022-08-18T11:35:46;22.50;83.60
913;DHT22;443;51.448;7.028;2022-08-18T11:38:15;22.50;83.70
913;DHT22;443;51.448;7.028;2022-08-18T11:40:47;22.50;83.70
913;DHT22;443;51.448;7.028;2022-08-18T11:43:18;22.50;83.70
913;DHT22;443;51.448;7.028;2022-08-18T11:45:51;22.50;83.60
913;DHT22;443;51.448;7.028;2022-08-18T11:48:22;22.50;83.70
913;DHT22;443;51.448;7.028;2022-08-18T11:50:59;22.50;83.60
913;DHT22;443;51.448;7.028;2022-08-18T11:53:37;22.50;83.60
913;DHT22;443;51.448;7.028;2022-08-18T11:56:16;22.50;83.70
913;DHT22;443;51.448;7.028;2022-08-18T11:58:50;22.50;83.50
913;DHT22;443;51.448;7.028;2022-08-18T12:01:33;22.50;83.60
913;DHT22;443;51.448;7.028;2022-08-18T12:04:21;22.50;83.50
913;DHT22;443;51.448;7.028;2022-08-18T12:06:55;22.50;83.60
913;DHT22;443;51.448;7.028;2022-08-18T12:09:37;22.50;83.70
913;DHT22;443;51.448;7.028;2022-08-18T12:12:13;22.50;83.60
913;DHT22;443;51.448;7.028;2022-08-18T12:14:52;22.50;83.50
913;DHT22;443;51.448;7.028;2022-08-18T12:17:20;22.50;84.10
913;DHT22;443;51.448;7.028;2022-08-18T12:19:47;22.50;84.30
913;DHT22;443;51.448;7.028;2022-08-18T12:22:16;22.50;83.60
913;DHT22;443;51.448;7.028;2022-08-18T12:24:44;22.50;84.30
913;DHT22;443;51.448;7.028;2022-08-18T12:27:13;22.50;83.60
913;DHT22;443;51.448;7.028;2022-08-18T12:29:41;22.50;83.60
913;DHT22;443;51.448;7.028;2022-08-18T12:32:08;22.50;83.60
913;DHT22;443;51.448;7.028;2022-08-18T12:34:35;22.50;83.50
913;DHT22;443;51.448;7.028;2022-08-18T12:37:03;22.50;83.50
913;DHT22;443;51.448;7.028;2022-08-18T12:39:33;22.50;83.60
913;DHT22;443;51.448;7.028;2022-08-18T12:42:01;22.50;83.50
913;DHT22;443;51.448;7.028;2022-08-18T12:44:29;22.50;83.50
913;DHT22;443;51.448;7.028;2022-08-18T12:46:55;22.60;83.40
913;DHT22;443;51.448;7.028;2022-08-18T12:49:23;22.60;83.20
913;DHT22;443;51.448;7.028;2022-08-18T12:51:51;22.60;83.40
913;DHT22;443;51.448;7.028;2022-08-18T12:54:19;22.60;83.30
913;DHT22;443;51.448;7.028;2022-08-18T12:56:47;22.60;83.40
913;DHT22;443;51.448;7.028;2022-08-18T12:59:16;22.60;83.40
913;DHT22;443;51.448;7.028;2022-08-18T13:01:45;22.60;83.40
913;DHT22;443;51.448;7.028;2022-08-18T13:04:12;22.60;83.20
913;DHT22;443;51.448;7.028;2022-08-18T13:06:43;22.60;83.20
913;DHT22;443;51.448;7.028;2022-08-18T13:09:10;22.60;83.20
913;DHT22;443;51.448;7.028;2022-08-18T13:11:37;22.60;83.20
913;DHT22;443;51.448;7.028;2022-08-18T13:14:04;22.60;83.20
913;DHT22;443;51.448;7.028;2022-08-18T13:16:32;22.60;83.10
913;DHT22;443;51.448;7.028;2022-08-18T13:19:02;22.60;83.30
913;DHT22;443;51.448;7.028;2022-08-18T13:21:29;22.60;83.10
913;DHT22;443;51.448;7.028;2022-08-18T13:23:55;22.60;83.10
913;DHT22;443;51.448;7.028;2022-08-18T13:26:25;22.70;82.90
913;DHT22;443;51.448;7.028;2022-08-18T13:28:53;22.70;82.70
913;DHT22;443;51.448;7.028;2022-08-18T13:31:19;22.80;82.70
913;DHT22;443;51.448;7.028;2022-08-18T13:33:46;22.80;82.50
913;DHT22;443;51.448;7.028;2022-08-18T13:36:16;22.80;82.40
913;DHT22;443;51.448;7.028;2022-08-18T13:38:42;22.80;82.50
913;DHT22;443;51.448;7.028;2022-08-18T13:41:10;22.80;82.40
913;DHT22;443;51.448;7.028;2022-08-18T13:43:39;22.90;82.20
913;DHT22;443;51.448;7.028;2022-08-18T13:46:08;23.00;81.80
913;DHT22;443;51.448;7.028;2022-08-18T13:48:36;23.00;81.50
913;DHT22;443;51.448;7.028;2022-08-18T13:51:04;23.00;81.40
913;DHT22;443;51.448;7.028;2022-08-18T13:53:35;23.10;81.40
913;DHT22;443;51.448;7.028;2022-08-18T13:56:02;23.00;81.70
913;DHT22;443;51.448;7.028;2022-08-18T13:58:30;23.10;81.40
913;DHT22;443;51.448;7.028;2022-08-18T14:00:58;23.10;81.00
913;DHT22;443;51.448;7.028;2022-08-18T14:03:27;23.20;81.10
913;DHT22;443;51.448;7.028;2022-08-18T14:05:54;23.10;81.20
913;DHT22;443;51.448;7.028;2022-08-18T14:08:39;23.10;81.30
913;DHT22;443;51.448;7.028;2022-08-18T14:11:06;23.10;81.10
913;DHT22;443;51.448;7.028;2022-08-18T14:13:33;23.20;80.80
913;DHT22;443;51.448;7.028;2022-08-18T14:16:00;23.30;80.60
913;DHT22;443;51.448;7.028;2022-08-18T14:18:27;23.30;80.20
913;DHT22;443;51.448;7.028;2022-08-18T14:20:54;23.40;79.90
913;DHT22;443;51.448;7.028;2022-08-18T14:23:40;23.40;80.00
913;DHT22;443;51.448;7.028;2022-08-18T14:26:24;23.40;80.00
913;DHT22;443;51.448;7.028;2022-08-18T14:29:09;23.40;80.10
913;DHT22;443;51.448;7.028;2022-08-18T14:31:36;23.40;80.10
913;DHT22;443;51.448;7.028;2022-08-18T14:34:03;23.40;79.90
913;DHT22;443;51.448;7.028;2022-08-18T14:36:30;23.40;80.00
913;DHT22;443;51.448;7.028;2022-08-18T14:38:58;23.50;79.80
913;DHT22;443;51.448;7.028;2022-08-18T14:41:25;23.60;79.60
913;DHT22;443;51.448;7.028;2022-08-18T14:43:52;23.60;79.70
913;DHT22;443;51.448;7.028;2022-08-18T14:46:21;23.50;80.40
913;DHT22;443;51.448;7.028;2022-08-18T14:48:48;23.50;79.80
913;DHT22;443;51.448;7.028;2022-08-18T14:51:15;23.50;79.70
913;DHT22;443;51.448;7.028;2022-08-18T14:53:42;23.50;79.80
913;DHT22;443;51.448;7.028;2022-08-18T14:56:10;23.50;79.90
913;DHT22;443;51.448;7.028;2022-08-18T14:58:38;23.50;79.80
913;DHT22;443;51.448;7.028;2022-08-18T15:01:07;23.60;79.50
913;DHT22;443;51.448;7.028;2022-08-18T15:03:37;23.60;79.30
913;DHT22;443;51.448;7.028;2022-08-18T15:06:05;23.70;79.30
913;DHT22;443;51.448;7.028;2022-08-18T15:08:33;23.60;79.20
913;DHT22;443;51.448;7.028;2022-08-18T15:11:00;23.60;79.30
913;DHT22;443;51.448;7.028;2022-08-18T15:13:29;23.70;79.20
913;DHT22;443;51.448;7.028;2022-08-18T15:15:56;23.70;79.20
913;DHT22;443;51.448;7.028;2022-08-18T15:18:23;23.60;79.30
913;DHT22;443;51.448;7.028;2022-08-18T15:20:51;23.50;79.40
913;DHT22;443;51.448;7.028;2022-08-18T15:23:35;23.50;79.50
913;DHT22;443;51.448;7.028;2022-08-18T15:26:21;23.50;79.50
913;DHT22;443;51.448;7.028;2022-08-18T15:28:51;23.50;79.50
913;DHT22;443;51.448;7.028;2022-08-18T15:31:18;23.50;79.50
913;DHT22;443;51.448;7.028;2022-08-18T15:33:45;23.50;79.70
913;DHT22;443;51.448;7.028;2022-08-18T15:36:12;23.50;80.60
913;DHT22;443;51.448;7.028;2022-08-18T15:38:47;23.50;79.80
913;DHT22;443;51.448;7.028;2022-08-18T15:41:33;23.50;79.80
913;DHT22;443;51.448;7.028;2022-08-18T15:44:02;23.50;79.80
913;DHT22;443;51.448;7.028;2022-08-18T15:46:31;23.50;79.70
913;DHT22;443;51.448;7.028;2022-08-18T15:48:58;23.50;79.80
913;DHT22;443;51.448;7.028;2022-08-18T15:51:25;23.50;79.90
913;DHT22;443;51.448;7.028;2022-08-18T15:53:52;23.50;80.00
913;DHT22;443;51.448;7.028;2022-08-18T15:56:22;23.50;79.80
913;DHT22;443;51.448;7.028;2022-08-18T15:58:50;23.50;79.90
913;DHT22;443;51.448;7.028;2022-08-18T16:01:20;23.40;79.80
913;DHT22;443;51.448;7.028;2022-08-18T16:03:48;23.40;79.90
913;DHT22;443;51.448;7.028;2022-08-18T16:06:17;23.40;80.80
913;DHT22;443;51.448;7.028;2022-08-18T16:08:44;23.30;80.00
913;DHT22;443;51.448;7.028;2022-08-18T16:11:12;23.30;80.10
913;DHT22;443;51.448;7.028;2022-08-18T16:13:40;23.30;80.00
913;DHT22;443;51.448;7.028;2022-08-18T16:16:09;23.50;79.80
913;DHT22;443;51.448;7.028;2022-08-18T16:18:37;23.80;79.10
913;DHT22;443;51.448;7.028;2022-08-18T16:21:05;24.00;78.30
913;DHT22;443;51.448;7.028;2022-08-18T16:23:35;24.10;77.70
913;DHT22;443;51.448;7.028;2022-08-18T16:26:02;24.10;77.50
913;DHT22;443;51.448;7.028;2022-08-18T16:28:30;24.00;77.70
913;DHT22;443;51.448;7.028;2022-08-18T16:30:56;23.80;78.40
913;DHT22;443;51.448;7.028;2022-08-18T16:33:24;23.70;78.80
913;DHT22;443;51.448;7.028;2022-08-18T16:35:52;23.60;79.20
913;DHT22;443;51.448;7.028;2022-08-18T16:38:19;23.60;79.40
913;DHT22;443;51.448;7.028;2022-08-18T16:40:47;23.50;79.40
913;DHT22;443;51.448;7.028;2022-08-18T16:43:14;23.50;79.60
913;DHT22;443;51.448;7.028;2022-08-18T16:45:41;23.50;79.70
913;DHT22;443;51.448;7.028;2022-08-18T16:48:09;23.50;80.40
913;DHT22;443;51.448;7.028;2022-08-18T16:50:36;23.50;79.80
913;DHT22;443;51.448;7.028;2022-08-18T16:53:08;23.40;79.80
913;DHT22;443;51.448;7.028;2022-08-18T16:55:35;23.40;79.50
913;DHT22;443;51.448;7.028;2022-08-18T16:58:03;23.40;80.40
913;DHT22;443;51.448;7.028;2022-08-18T17:00:48;23.40;79.70
913;DHT22;443;51.448;7.028;2022-08-18T17:03:32;23.40;79.80
913;DHT22;443;51.448;7.028;2022-08-18T17:06:18;23.40;79.70
913;DHT22;443;51.448;7.028;2022-08-18T17:08:46;23.50;79.80
913;DHT22;443;51.448;7.028;2022-08-18T17:11:16;23.40;79.70
913;DHT22;443;51.448;7.028;2022-08-18T17:13:44;23.40;79.90
913;DHT22;443;51.448;7.028;2022-08-18T17:16:11;23.30;79.80
913;DHT22;443;51.448;7.028;2022-08-18T17:18:39;23.40;79.90
913;DHT22;443;51.448;7.028;2022-08-18T17:21:09;23.40;79.90
913;DHT22;443;51.448;7.028;2022-08-18T17:23:37;23.40;80.00
913;DHT22;443;51.448;7.028;2022-08-18T17:26:06;23.40;80.00
913;DHT22;443;51.448;7.028;2022-08-18T17:28:39;23.40;80.00
913;DHT22;443;51.448;7.028;2022-08-18T17:31:07;23.40;80.00